sensor_id;sensor_type;location;lat;lon;timestamp;temperature;humidity
22360;DHT22;11347;52.030;4.690;2023-07-13T00:02:05;17.40;99.90
22360;DHT22;11347;52.030;4.690;2023-07-13T00:04:30;17.30;99.90
22360;DHT22;11347;52.030;4.690;2023-07-13T00:06:56;17.30;99.90
22360;DHT22;11347;52.030;4.690;2023-07-13T00:09:22;17.20;99.90
22360;DHT22;11347;52.030;4.690;2023-07-13T00:11:51;17.10;99.90
22360;DHT22;11347;52.030;4.690;2023-07-13T00:14:17;17.10;99.90
22360;DHT22;11347;52.030;4.690;2023-07-13T00:16:42;17.00;99.90
22360;DHT22;11347;52.030;4.690;2023-07-13T00:19:09;17.10;99.90
22360;DHT22;11347;52.030;4.690;2023-07-13T00:21:36;17.00;99.90
22360;DHT22;11347;52.030;4.690;2023-07-13T00:24:01;17.00;99.90
22360;DHT22;11347;52.030;4.690;2023-07-13T00:26:28;17.00;99.90
22360;DHT22;11347;52.030;4.690;2023-07-13T00:28:54;17.00;99.90
22360;DHT22;11347;52.030;4.690;2023-07-13T00:31:19;16.90;99.90
22360;DHT22;11347;52.030;4.690;2023-07-13T00:33:45;16.90;99.90
22360;DHT22;11347;52.030;4.690;2023-07-13T00:36:11;17.00;99.90
22360;DHT22;11347;52.030;4.690;2023-07-13T00:38:37;16.90;99.90
22360;DHT22;11347;52.030;4.690;2023-07-13T00:41:04;17.00;99.90
22360;DHT22;11347;52.030;4.690;2023-07-13T00:43:30;17.00;99.90
22360;DHT22;11347;52.030;4.690;2023-07-13T00:48:25;17.00;99.90
22360;DHT22;11347;52.030;4.690;2023-07-13T00:50:54;17.00;99.90
22360;DHT22;11347;52.030;4.690;2023-07-13T00:53:21;17.00;99.90
22360;DHT22;11347;52.030;4.690;2023-07-13T00:55:51;17.00;99.90
22360;DHT22;11347;52.030;4.690;2023-07-13T00:58:17;17.00;99.90
22360;DHT22;11347;52.030;4.690;2023-07-13T01:00:43;17.00;99.90
22360;DHT22;11347;52.030;4.690;2023-07-13T01:03:08;17.00;99.90
22360;DHT22;11347;52.030;4.690;2023-07-13T01:05:35;17.00;99.90
22360;DHT22;11347;52.030;4.690;2023-07-13T01:08:03;17.00;99.90
22360;DHT22;11347;52.030;4.690;2023-07-13T01:10:31;17.00;99.90
22360;DHT22;11347;52.030;4.690;2023-07-13T01:13:05;17.00;99.90
22360;DHT22;11347;52.030;4.690;2023-07-13T01:18:08;17.00;99.90
22360;DHT22;11347;52.030;4.690;2023-07-13T01:20:35;17.00;99.90
22360;DHT22;11347;52.030;4.690;2023-07-13T01:23:09;17.00;99.90
22360;DHT22;11347;52.030;4.690;2023-07-13T01:25:35;17.00;99.90
22360;DHT22;11347;52.030;4.690;2023-07-13T01:28:02;16.90;99.90
22360;DHT22;11347;52.030;4.690;2023-07-13T01:30:28;16.90;99.90
22360;DHT22;11347;52.030;4.690;2023-07-13T01:32:54;16.90;99.90
22360;DHT22;11347;52.030;4.690;2023-07-13T01:35:19;16.90;99.90
22360;DHT22;11347;52.030;4.690;2023-07-13T01:37:45;16.90;99.90
22360;DHT22;11347;52.030;4.690;2023-07-13T01:40:12;16.90;99.90
22360;DHT22;11347;52.030;4.690;2023-07-13T01:42:38;16.90;99.90
22360;DHT22;11347;52.030;4.690;2023-07-13T01:45:04;16.90;99.90
22360;DHT22;11347;52.030;4.690;2023-07-13T01:47:30;16.90;99.90
22360;DHT22;11347;52.030;4.690;2023-07-13T01:49:56;16.90;99.90
22360;DHT22;11347;52.030;4.690;2023-07-13T01:52:22;17.00;99.90
22360;DHT22;11347;52.030;4.690;2023-07-13T01:54:48;16.90;99.90
22360;DHT22;11347;52.030;4.690;2023-07-13T01:57:13;16.90;99.90
22360;DHT22;11347;52.030;4.690;2023-07-13T01:59:39;16.90;99.90
22360;DHT22;11347;52.030;4.690;2023-07-13T02:02:04;16.90;99.90
22360;DHT22;11347;52.030;4.690;2023-07-13T02:04:30;16.90;99.90
22360;DHT22;11347;52.030;4.690;2023-07-13T02:06:56;16.80;99.90
22360;DHT22;11347;52.030;4.690;2023-07-13T02:09:21;16.90;98.40
22360;DHT22;11347;52.030;4.690;2023-07-13T02:11:47;16.90;97.70
22360;DHT22;11347;52.030;4.690;2023-07-13T02:14:14;16.80;96.80
22360;DHT22;11347;52.030;4.690;2023-07-13T02:16:40;16.80;95.10
22360;DHT22;11347;52.030;4.690;2023-07-13T02:19:06;16.80;95.40
22360;DHT22;11347;52.030;4.690;2023-07-13T02:21:32;16.80;95.40
22360;DHT22;11347;52.030;4.690;2023-07-13T02:23:57;16.80;95.40
22360;DHT22;11347;52.030;4.690;2023-07-13T02:26:23;16.80;95.50
22360;DHT22;11347;52.030;4.690;2023-07-13T02:28:48;16.80;95.90
22360;DHT22;11347;52.030;4.690;2023-07-13T02:31:15;16.80;95.50
22360;DHT22;11347;52.030;4.690;2023-07-13T02:33:41;16.70;95.10
22360;DHT22;11347;52.030;4.690;2023-07-13T02:36:07;16.70;94.40
22360;DHT22;11347;52.030;4.690;2023-07-13T02:38:33;16.70;94.80
22360;DHT22;11347;52.030;4.690;2023-07-13T02:41:00;16.70;94.70
22360;DHT22;11347;52.030;4.690;2023-07-13T02:43:26;16.70;94.70
22360;DHT22;11347;52.030;4.690;2023-07-13T02:45:52;16.70;94.70
22360;DHT22;11347;52.030;4.690;2023-07-13T02:48:18;16.70;94.70
22360;DHT22;11347;52.030;4.690;2023-07-13T02:50:44;16.70;94.50
22360;DHT22;11347;52.030;4.690;2023-07-13T02:53:10;16.70;94.50
22360;DHT22;11347;52.030;4.690;2023-07-13T02:55:36;16.70;95.00
22360;DHT22;11347;52.030;4.690;2023-07-13T02:58:01;16.60;94.70
22360;DHT22;11347;52.030;4.690;2023-07-13T03:00:27;16.60;95.30
22360;DHT22;11347;52.030;4.690;2023-07-13T03:02:53;16.60;95.90
22360;DHT22;11347;52.030;4.690;2023-07-13T03:05:22;16.60;96.70
22360;DHT22;11347;52.030;4.690;2023-07-13T03:07:48;16.60;97.40
22360;DHT22;11347;52.030;4.690;2023-07-13T03:10:13;16.60;98.20
22360;DHT22;11347;52.030;4.690;2023-07-13T03:12:39;16.70;99.50
22360;DHT22;11347;52.030;4.690;2023-07-13T03:15:05;16.60;99.90
22360;DHT22;11347;52.030;4.690;2023-07-13T03:17:30;16.60;99.90
22360;DHT22;11347;52.030;4.690;2023-07-13T03:19:56;16.60;99.90
22360;DHT22;11347;52.030;4.690;2023-07-13T03:22:22;16.60;99.90
22360;DHT22;11347;52.030;4.690;2023-07-13T03:24:48;16.60;99.90
22360;DHT22;11347;52.030;4.690;2023-07-13T03:27:14;16.60;99.90
22360;DHT22;11347;52.030;4.690;2023-07-13T03:29:40;16.60;99.90
22360;DHT22;11347;52.030;4.690;2023-07-13T03:32:06;16.60;99.90
22360;DHT22;11347;52.030;4.690;2023-07-13T03:34:31;16.60;99.90
22360;DHT22;11347;52.030;4.690;2023-07-13T03:36:58;16.60;99.90
22360;DHT22;11347;52.030;4.690;2023-07-13T03:39:23;16.60;99.90
22360;DHT22;11347;52.030;4.690;2023-07-13T03:41:49;16.50;99.90
22360;DHT22;11347;52.030;4.690;2023-07-13T03:44:16;16.60;99.90
22360;DHT22;11347;52.030;4.690;2023-07-13T03:46:42;16.50;99.90
22360;DHT22;11347;52.030;4.690;2023-07-13T03:49:08;16.50;99.90
22360;DHT22;11347;52.030;4.690;2023-07-13T03:51:33;16.50;99.90
22360;DHT22;11347;52.030;4.690;2023-07-13T03:53:59;16.50;99.90
22360;DHT22;11347;52.030;4.690;2023-07-13T03:56:25;16.50;99.90
22360;DHT22;11347;52.030;4.690;2023-07-13T03:58:50;16.50;99.90
22360;DHT22;11347;52.030;4.690;2023-07-13T04:01:18;16.50;99.90
22360;DHT22;11347;52.030;4.690;2023-07-13T04:03:43;16.50;99.90
22360;DHT22;11347;52.030;4.690;2023-07-13T04:06:17;16.60;99.90
22360;DHT22;11347;52.030;4.690;2023-07-13T04:08:47;16.70;99.90
22360;DHT22;11347;52.030;4.690;2023-07-13T04:11:14;16.80;99.90
22360;DHT22;11347;52.030;4.690;2023-07-13T04:13:40;16.80;99.90
22360;DHT22;11347;52.030;4.690;2023-07-13T04:16:05;16.80;99.90
22360;DHT22;11347;52.030;4.690;2023-07-13T04:18:31;16.90;99.90
22360;DHT22;11347;52.030;4.690;2023-07-13T04:20:56;16.90;99.90
22360;DHT22;11347;52.030;4.690;2023-07-13T04:23:22;17.00;99.90
22360;DHT22;11347;52.030;4.690;2023-07-13T04:25:49;17.00;99.90
22360;DHT22;11347;52.030;4.690;2023-07-13T04:28:18;17.00;99.90
22360;DHT22;11347;52.030;4.690;2023-07-13T04:30:43;17.00;99.90
22360;DHT22;11347;52.030;4.690;2023-07-13T04:33:09;17.10;99.90
22360;DHT22;11347;52.030;4.690;2023-07-13T04:35:35;17.10;99.90
22360;DHT22;11347;52.030;4.690;2023-07-13T04:38:01;17.20;99.90
22360;DHT22;11347;52.030;4.690;2023-07-13T04:40:28;17.20;99.90
22360;DHT22;11347;52.030;4.690;2023-07-13T04:42:54;17.20;99.90
22360;DHT22;11347;52.030;4.690;2023-07-13T04:45:19;17.20;99.90
22360;DHT22;11347;52.030;4.690;2023-07-13T04:47:45;17.30;99.90
22360;DHT22;11347;52.030;4.690;2023-07-13T04:50:13;17.30;99.90
22360;DHT22;11347;52.030;4.690;2023-07-13T04:52:44;17.30;99.90
22360;DHT22;11347;52.030;4.690;2023-07-13T04:55:10;17.30;99.90
22360;DHT22;11347;52.030;4.690;2023-07-13T04:57:36;17.40;99.90
22360;DHT22;11347;52.030;4.690;2023-07-13T05:00:02;17.50;99.90
22360;DHT22;11347;52.030;4.690;2023-07-13T05:02:31;17.50;99.90
22360;DHT22;11347;52.030;4.690;2023-07-13T05:04:57;17.60;99.90
22360;DHT22;11347;52.030;4.690;2023-07-13T05:07:23;17.60;99.90
22360;DHT22;11347;52.030;4.690;2023-07-13T05:09:49;17.60;99.90
22360;DHT22;11347;52.030;4.690;2023-07-13T05:12:14;17.60;99.90
22360;DHT22;11347;52.030;4.690;2023-07-13T05:14:40;17.70;99.90
22360;DHT22;11347;52.030;4.690;2023-07-13T05:17:05;17.70;99.90
22360;DHT22;11347;52.030;4.690;2023-07-13T05:19:31;17.70;99.90
22360;DHT22;11347;52.030;4.690;2023-07-13T05:21:57;17.80;99.90
22360;DHT22;11347;52.030;4.690;2023-07-13T05:24:22;17.80;99.90
22360;DHT22;11347;52.030;4.690;2023-07-13T05:26:48;17.80;99.90
22360;DHT22;11347;52.030;4.690;2023-07-13T05:29:13;17.90;99.90
22360;DHT22;11347;52.030;4.690;2023-07-13T05:31:39;17.90;99.90
22360;DHT22;11347;52.030;4.690;2023-07-13T05:34:05;17.90;99.90
22360;DHT22;11347;52.030;4.690;2023-07-13T05:36:30;18.00;99.90
22360;DHT22;11347;52.030;4.690;2023-07-13T05:38:56;18.10;99.90
22360;DHT22;11347;52.030;4.690;2023-07-13T05:41:21;18.20;99.90
22360;DHT22;11347;52.030;4.690;2023-07-13T05:43:47;18.30;99.90
22360;DHT22;11347;52.030;4.690;2023-07-13T05:46:12;18.30;99.90
22360;DHT22;11347;52.030;4.690;2023-07-13T05:48:38;18.40;99.90
22360;DHT22;11347;52.030;4.690;2023-07-13T05:51:03;18.40;99.90
22360;DHT22;11347;52.030;4.690;2023-07-13T05:53:29;18.40;99.90
22360;DHT22;11347;52.030;4.690;2023-07-13T05:55:55;18.40;99.90
22360;DHT22;11347;52.030;4.690;2023-07-13T05:58:20;18.40;99.90
22360;DHT22;11347;52.030;4.690;2023-07-13T06:00:47;18.40;99.90
22360;DHT22;11347;52.030;4.690;2023-07-13T06:03:15;18.50;99.90
22360;DHT22;11347;52.030;4.690;2023-07-13T06:05:41;18.50;99.90
22360;DHT22;11347;52.030;4.690;2023-07-13T06:08:07;18.50;99.80
22360;DHT22;11347;52.030;4.690;2023-07-13T06:10:36;18.50;99.90
22360;DHT22;11347;52.030;4.690;2023-07-13T06:13:02;18.50;99.90
22360;DHT22;11347;52.030;4.690;2023-07-13T06:15:28;18.40;99.90
22360;DHT22;11347;52.030;4.690;2023-07-13T06:17:54;18.40;99.90
22360;DHT22;11347;52.030;4.690;2023-07-13T06:20:19;18.50;99.90
22360;DHT22;11347;52.030;4.690;2023-07-13T06:22:45;18.50;99.90
22360;DHT22;11347;52.030;4.690;2023-07-13T06:25:10;18.50;99.90
22360;DHT22;11347;52.030;4.690;2023-07-13T06:27:36;18.40;99.90
22360;DHT22;11347;52.030;4.690;2023-07-13T06:30:02;18.20;99.90
